sensor_id;sensor_type;location;lat;lon;timestamp;P1;durP1;ratioP1;P2;durP2;ratioP2
17965;SDS011;9108;53.204;10.424;2024-02-15T05:02:06;24.67;;;11.10;;
17965;SDS011;9108;53.204;10.424;2024-02-15T05:04:34;22.83;;;11.70;;
17965;SDS011;9108;53.204;10.424;2024-02-15T05:07:01;23.52;;;11.82;;
17965;SDS011;9108;53.204;10.424;2024-02-15T05:09:29;24.17;;;11.38;;
17965;SDS011;9108;53.204;10.424;2024-02-15T05:11:59;27.95;;;12.38;;
17965;SDS011;9108;53.204;10.424;2024-02-15T05:14:27;27.38;;;12.23;;
17965;SDS011;9108;53.204;10.424;2024-02-15T05:16:54;27.17;;;12.30;;
17965;SDS011;9108;53.204;10.424;2024-02-15T05:19:22;27.58;;;12.50;;
17965;SDS011;9108;53.204;10.424;2024-02-15T05:21:49;30.13;;;12.98;;
17965;SDS011;9108;53.204;10.424;2024-02-15T05:24:17;28.00;;;12.75;;
17965;SDS011;9108;53.204;10.424;2024-02-15T05:26:45;28.48;;;13.25;;
17965;SDS011;9108;53.204;10.424;2024-02-15T05:29:13;29.73;;;12.77;;
17965;SDS011;9108;53.204;10.424;2024-02-15T05:31:41;30.73;;;13.20;;
17965;SDS011;9108;53.204;10.424;2024-02-15T05:34:09;27.85;;;13.18;;
17965;SDS011;9108;53.204;10.424;2024-02-15T05:36:38;31.05;;;13.10;;
17965;SDS011;9108;53.204;10.424;2024-02-15T05:39:05;30.83;;;13.57;;
17965;SDS011;9108;53.204;10.424;2024-02-15T05:41:33;32.03;;;13.38;;
17965;SDS011;9108;53.204;10.424;2024-02-15T05:44:00;30.60;;;14.00;;
17965;SDS011;9108;53.204;10.424;2024-02-15T05:46:30;31.42;;;13.82;;
17965;SDS011;9108;53.204;10.424;2024-02-15T05:48:57;34.10;;;14.75;;
17965;SDS011;9108;53.204;10.424;2024-02-15T05:51:24;35.45;;;14.80;;
17965;SDS011;9108;53.204;10.424;2024-02-15T05:53:53;35.70;;;14.82;;
17965;SDS011;9108;53.204;10.424;2024-02-15T05:56:23;34.80;;;14.27;;
17965;SDS011;9108;53.204;10.424;2024-02-15T05:58:51;36.08;;;14.80;;
17965;SDS011;9108;53.204;10.424;2024-02-15T06:01:18;38.40;;;14.88;;
17965;SDS011;9108;53.204;10.424;2024-02-15T06:03:45;35.07;;;14.53;;
17965;SDS011;9108;53.204;10.424;2024-02-15T06:06:13;35.83;;;14.55;;
17965;SDS011;9108;53.204;10.424;2024-02-15T06:08:40;38.03;;;14.73;;
17965;SDS011;9108;53.204;10.424;2024-02-15T06:11:09;34.35;;;14.32;;
17965;SDS011;9108;53.204;10.424;2024-02-15T06:13:37;38.50;;;15.15;;
17965;SDS011;9108;53.204;10.424;2024-02-15T06:16:04;40.35;;;15.60;;
17965;SDS011;9108;53.204;10.424;2024-02-15T06:18:34;39.80;;;15.25;;
17965;SDS011;9108;53.204;10.424;2024-02-15T06:21:02;37.55;;;15.30;;
17965;SDS011;9108;53.204;10.424;2024-02-15T06:23:30;39.22;;;15.55;;
17965;SDS011;9108;53.204;10.424;2024-02-15T06:25:58;36.67;;;15.55;;
17965;SDS011;9108;53.204;10.424;2024-02-15T06:28:29;36.45;;;15.40;;
17965;SDS011;9108;53.204;10.424;2024-02-15T06:31:13;38.93;;;15.83;;
17965;SDS011;9108;53.204;10.424;2024-02-15T06:33:58;37.53;;;16.02;;
17965;SDS011;9108;53.204;10.424;2024-02-15T06:36:45;42.30;;;17.25;;
17965;SDS011;9108;53.204;10.424;2024-02-15T06:39:30;38.72;;;16.40;;
17965;SDS011;9108;53.204;10.424;2024-02-15T06:42:11;41.33;;;16.67;;
17965;SDS011;9108;53.204;10.424;2024-02-15T06:44:42;41.35;;;17.13;;
17965;SDS011;9108;53.204;10.424;2024-02-15T06:47:09;40.03;;;16.33;;
17965;SDS011;9108;53.204;10.424;2024-02-15T06:49:37;40.00;;;16.55;;
17965;SDS011;9108;53.204;10.424;2024-02-15T06:52:05;38.55;;;15.88;;
17965;SDS011;9108;53.204;10.424;2024-02-15T06:54:33;43.65;;;16.63;;
17965;SDS011;9108;53.204;10.424;2024-02-15T06:57:01;37.65;;;15.90;;
17965;SDS011;9108;53.204;10.424;2024-02-15T06:59:29;38.60;;;16.17;;
17965;SDS011;9108;53.204;10.424;2024-02-15T07:01:59;37.30;;;15.85;;
17965;SDS011;9108;53.204;10.424;2024-02-15T07:04:26;37.67;;;15.85;;
17965;SDS011;9108;53.204;10.424;2024-02-15T07:06:54;40.37;;;15.47;;
17965;SDS011;9108;53.204;10.424;2024-02-15T07:09:22;37.08;;;15.75;;
17965;SDS011;9108;53.204;10.424;2024-02-15T07:11:49;42.30;;;15.57;;
17965;SDS011;9108;53.204;10.424;2024-02-15T07:14:16;41.97;;;16.05;;
17965;SDS011;9108;53.204;10.424;2024-02-15T07:16:44;40.83;;;16.02;;
17965;SDS011;9108;53.204;10.424;2024-02-15T07:19:13;41.88;;;15.90;;
17965;SDS011;9108;53.204;10.424;2024-02-15T07:21:40;38.75;;;15.85;;
17965;SDS011;9108;53.204;10.424;2024-02-15T07:24:07;41.17;;;15.60;;
17965;SDS011;9108;53.204;10.424;2024-02-15T07:26:35;43.55;;;15.93;;
17965;SDS011;9108;53.204;10.424;2024-02-15T07:29:02;42.28;;;15.82;;
17965;SDS011;9108;53.204;10.424;2024-02-15T07:31:31;39.67;;;15.57;;
17965;SDS011;9108;53.204;10.424;2024-02-15T07:33:58;42.03;;;15.75;;
17965;SDS011;9108;53.204;10.424;2024-02-15T07:36:27;43.97;;;16.17;;
17965;SDS011;9108;53.204;10.424;2024-02-15T07:38:55;38.83;;;15.23;;
17965;SDS011;9108;53.204;10.424;2024-02-15T07:41:25;38.55;;;15.45;;
17965;SDS011;9108;53.204;10.424;2024-02-15T07:43:53;40.88;;;16.15;;
17965;SDS011;9108;53.204;10.424;2024-02-15T07:46:20;38.85;;;15.23;;
17965;SDS011;9108;53.204;10.424;2024-02-15T07:48:49;37.78;;;15.07;;
17965;SDS011;9108;53.204;10.424;2024-02-15T07:51:16;36.30;;;14.82;;
17965;SDS011;9108;53.204;10.424;2024-02-15T07:53:45;37.47;;;14.43;;
17965;SDS011;9108;53.204;10.424;2024-02-15T07:56:13;35.60;;;14.45;;
17965;SDS011;9108;53.204;10.424;2024-02-15T07:58:41;33.40;;;13.57;;
17965;SDS011;9108;53.204;10.424;2024-02-15T08:01:11;32.50;;;13.33;;
17965;SDS011;9108;53.204;10.424;2024-02-15T08:03:38;30.67;;;13.20;;
17965;SDS011;9108;53.204;10.424;2024-02-15T08:06:09;30.67;;;13.07;;
17965;SDS011;9108;53.204;10.424;2024-02-15T08:08:37;31.83;;;13.50;;
17965;SDS011;9108;53.204;10.424;2024-02-15T08:11:07;30.83;;;12.95;;
17965;SDS011;9108;53.204;10.424;2024-02-15T08:13:39;26.45;;;12.23;;
17965;SDS011;9108;53.204;10.424;2024-02-15T08:16:07;24.40;;;11.40;;
17965;SDS011;9108;53.204;10.424;2024-02-15T08:18:34;23.52;;;11.25;;
17965;SDS011;9108;53.204;10.424;2024-02-15T08:21:02;23.20;;;10.48;;
17965;SDS011;9108;53.204;10.424;2024-02-15T08:23:29;21.02;;;10.27;;
17965;SDS011;9108;53.204;10.424;2024-02-15T08:25:57;20.60;;;10.13;;
17965;SDS011;9108;53.204;10.424;2024-02-15T08:28:25;17.45;;;8.98;;
17965;SDS011;9108;53.204;10.424;2024-02-15T08:30:53;20.00;;;9.45;;
17965;SDS011;9108;53.204;10.424;2024-02-15T08:33:21;15.55;;;8.68;;
17965;SDS011;9108;53.204;10.424;2024-02-15T08:35:48;16.25;;;8.20;;
17965;SDS011;9108;53.204;10.424;2024-02-15T08:38:16;16.90;;;8.35;;
17965;SDS011;9108;53.204;10.424;2024-02-15T08:40:43;13.38;;;7.80;;
17965;SDS011;9108;53.204;10.424;2024-02-15T08:43:11;16.70;;;8.05;;
17965;SDS011;9108;53.204;10.424;2024-02-15T08:45:40;15.20;;;7.30;;
17965;SDS011;9108;53.204;10.424;2024-02-15T08:48:08;12.43;;;7.10;;
17965;SDS011;9108;53.204;10.424;2024-02-15T08:50:35;12.50;;;7.20;;
17965;SDS011;9108;53.204;10.424;2024-02-15T08:53:02;14.00;;;6.97;;
17965;SDS011;9108;53.204;10.424;2024-02-15T08:55:31;12.45;;;6.80;;
17965;SDS011;9108;53.204;10.424;2024-02-15T08:58:00;12.38;;;6.93;;
17965;SDS011;9108;53.204;10.424;2024-02-15T09:00:29;12.85;;;6.72;;
17965;SDS011;9108;53.204;10.424;2024-02-15T09:02:57;12.63;;;6.63;;
17965;SDS011;9108;53.204;10.424;2024-02-15T09:05:24;11.93;;;6.95;;
17965;SDS011;9108;53.204;10.424;2024-02-15T09:07:52;12.15;;;6.97;;
17965;SDS011;9108;53.204;10.424;2024-02-15T09:10:19;11.48;;;7.03;;
17965;SDS011;9108;53.204;10.424;2024-02-15T09:12:47;11.52;;;7.38;;
17965;SDS011;9108;53.204;10.424;2024-02-15T09:15:15;13.90;;;7.60;;
17965;SDS011;9108;53.204;10.424;2024-02-15T09:17:43;14.20;;;7.70;;
17965;SDS011;9108;53.204;10.424;2024-02-15T09:20:12;14.85;;;8.38;;
17965;SDS011;9108;53.204;10.424;2024-02-15T09:22:40;15.93;;;8.65;;
17965;SDS011;9108;53.204;10.424;2024-02-15T09:25:08;16.97;;;8.50;;
17965;SDS011;9108;53.204;10.424;2024-02-15T09:27:35;15.98;;;8.80;;
17965;SDS011;9108;53.204;10.424;2024-02-15T09:30:03;17.02;;;9.27;;
17965;SDS011;9108;53.204;10.424;2024-02-15T09:32:32;18.30;;;10.05;;
17965;SDS011;9108;53.204;10.424;2024-02-15T09:35:01;21.45;;;10.52;;
17965;SDS011;9108;53.204;10.424;2024-02-15T09:37:29;21.77;;;11.52;;
17965;SDS011;9108;53.204;10.424;2024-02-15T09:39:58;21.67;;;11.75;;
17965;SDS011;9108;53.204;10.424;2024-02-15T09:42:30;21.27;;;10.98;;
17965;SDS011;9108;53.204;10.424;2024-02-15T09:44:59;24.75;;;11.93;;
17965;SDS011;9108;53.204;10.424;2024-02-15T09:47:27;23.27;;;11.97;;
17965;SDS011;9108;53.204;10.424;2024-02-15T09:49:57;24.60;;;12.05;;
17965;SDS011;9108;53.204;10.424;2024-02-15T09:52:25;27.42;;;12.52;;
17965;SDS011;9108;53.204;10.424;2024-02-15T09:54:58;26.67;;;13.18;;
17965;SDS011;9108;53.204;10.424;2024-02-15T09:57:27;27.52;;;13.57;;
17965;SDS011;9108;53.204;10.424;2024-02-15T09:59:57;31.02;;;13.95;;
17965;SDS011;9108;53.204;10.424;2024-02-15T10:02:24;30.73;;;14.60;;
17965;SDS011;9108;53.204;10.424;2024-02-15T10:04:52;30.75;;;14.80;;
17965;SDS011;9108;53.204;10.424;2024-02-15T10:07:21;29.13;;;14.40;;
17965;SDS011;9108;53.204;10.424;2024-02-15T10:09:48;30.67;;;14.40;;
17965;SDS011;9108;53.204;10.424;2024-02-15T10:12:18;33.47;;;14.98;;
17965;SDS011;9108;53.204;10.424;2024-02-15T10:14:49;30.80;;;15.70;;
17965;SDS011;9108;53.204;10.424;2024-02-15T10:17:17;33.15;;;15.50;;
17965;SDS011;9108;53.204;10.424;2024-02-15T10:19:45;34.33;;;16.07;;
17965;SDS011;9108;53.204;10.424;2024-02-15T10:22:29;37.10;;;16.85;;
17965;SDS011;9108;53.204;10.424;2024-02-15T10:25:09;37.22;;;17.73;;
17965;SDS011;9108;53.204;10.424;2024-02-15T10:27:38;39.60;;;18.23;;
17965;SDS011;9108;53.204;10.424;2024-02-15T10:30:13;41.85;;;19.27;;
17965;SDS011;9108;53.204;10.424;2024-02-15T10:32:41;43.03;;;19.50;;
17965;SDS011;9108;53.204;10.424;2024-02-15T10:35:08;44.72;;;20.88;;
17965;SDS011;9108;53.204;10.424;2024-02-15T10:37:36;42.80;;;20.95;;
17965;SDS011;9108;53.204;10.424;2024-02-15T10:40:03;43.97;;;21.00;;
17965;SDS011;9108;53.204;10.424;2024-02-15T10:42:32;49.47;;;21.80;;
17965;SDS011;9108;53.204;10.424;2024-02-15T10:45:01;48.40;;;21.92;;
17965;SDS011;9108;53.204;10.424;2024-02-15T10:47:30;48.03;;;22.92;;
17965;SDS011;9108;53.204;10.424;2024-02-15T10:49:57;50.05;;;22.90;;
17965;SDS011;9108;53.204;10.424;2024-02-15T10:52:25;46.10;;;22.60;;
17965;SDS011;9108;53.204;10.424;2024-02-15T10:54:56;47.85;;;22.38;;
17965;SDS011;9108;53.204;10.424;2024-02-15T10:57:30;47.70;;;23.17;;
17965;SDS011;9108;53.204;10.424;2024-02-15T10:59:59;49.87;;;22.87;;
17965;SDS011;9108;53.204;10.424;2024-02-15T11:02:37;47.20;;;23.77;;
17965;SDS011;9108;53.204;10.424;2024-02-15T11:05:07;49.03;;;23.55;;
17965;SDS011;9108;53.204;10.424;2024-02-15T11:07:37;52.17;;;23.88;;
17965;SDS011;9108;53.204;10.424;2024-02-15T11:10:05;48.40;;;22.15;;
17965;SDS011;9108;53.204;10.424;2024-02-15T11:12:33;45.80;;;22.10;;
17965;SDS011;9108;53.204;10.424;2024-02-15T11:15:01;48.42;;;21.95;;
17965;SDS011;9108;53.204;10.424;2024-02-15T11:17:48;49.55;;;21.48;;
17965;SDS011;9108;53.204;10.424;2024-02-15T11:20:45;43.70;;;20.45;;
17965;SDS011;9108;53.204;10.424;2024-02-15T11:23:23;38.33;;;19.48;;
17965;SDS011;9108;53.204;10.424;2024-02-15T11:25:51;41.50;;;19.65;;
17965;SDS011;9108;53.204;10.424;2024-02-15T11:28:34;43.80;;;19.50;;
17965;SDS011;9108;53.204;10.424;2024-02-15T11:31:03;39.85;;;19.48;;
17965;SDS011;9108;53.204;10.424;2024-02-15T11:33:32;42.20;;;19.77;;
17965;SDS011;9108;53.204;10.424;2024-02-15T11:36:03;37.92;;;18.42;;
17965;SDS011;9108;53.204;10.424;2024-02-15T11:38:31;36.87;;;18.30;;
17965;SDS011;9108;53.204;10.424;2024-02-15T11:40:59;33.75;;;17.63;;
17965;SDS011;9108;53.204;10.424;2024-02-15T11:46:14;38.33;;;16.70;;
17965;SDS011;9108;53.204;10.424;2024-02-15T11:48:44;32.28;;;14.95;;
17965;SDS011;9108;53.204;10.424;2024-02-15T11:51:24;29.97;;;14.40;;
17965;SDS011;9108;53.204;10.424;2024-02-15T11:53:58;29.77;;;13.98;;
17965;SDS011;9108;53.204;10.424;2024-02-15T11:56:25;25.98;;;13.00;;
17965;SDS011;9108;53.204;10.424;2024-02-15T11:59:01;26.25;;;13.20;;
17965;SDS011;9108;53.204;10.424;2024-02-15T12:01:31;27.35;;;13.52;;
17965;SDS011;9108;53.204;10.424;2024-02-15T12:04:17;24.80;;;12.60;;
17965;SDS011;9108;53.204;10.424;2024-02-15T12:07:03;24.45;;;11.88;;
17965;SDS011;9108;53.204;10.424;2024-02-15T12:09:47;22.38;;;11.20;;
17965;SDS011;9108;53.204;10.424;2024-02-15T12:12:32;22.77;;;10.55;;
17965;SDS011;9108;53.204;10.424;2024-02-15T12:15:16;22.98;;;9.70;;
17965;SDS011;9108;53.204;10.424;2024-02-15T12:18:14;20.85;;;9.23;;
17965;SDS011;9108;53.204;10.424;2024-02-15T12:21:00;19.07;;;8.63;;
17965;SDS011;9108;53.204;10.424;2024-02-15T12:23:29;17.85;;;7.65;;
17965;SDS011;9108;53.204;10.424;2024-02-15T12:25:58;17.92;;;7.70;;
17965;SDS011;9108;53.204;10.424;2024-02-15T12:28:26;16.58;;;7.40;;
17965;SDS011;9108;53.204;10.424;2024-02-15T12:30:54;15.13;;;6.85;;
17965;SDS011;9108;53.204;10.424;2024-02-15T12:33:22;16.13;;;6.70;;
17965;SDS011;9108;53.204;10.424;2024-02-15T12:35:49;15.90;;;6.47;;
17965;SDS011;9108;53.204;10.424;2024-02-15T12:38:18;17.98;;;6.32;;
17965;SDS011;9108;53.204;10.424;2024-02-15T12:40:46;16.05;;;5.70;;
17965;SDS011;9108;53.204;10.424;2024-02-15T12:43:13;11.55;;;5.50;;
17965;SDS011;9108;53.204;10.424;2024-02-15T12:45:41;12.85;;;5.43;;
17965;SDS011;9108;53.204;10.424;2024-02-15T12:48:09;11.40;;;5.50;;
17965;SDS011;9108;53.204;10.424;2024-02-15T12:50:37;11.40;;;5.20;;
17965;SDS011;9108;53.204;10.424;2024-02-15T12:53:04;12.63;;;5.17;;
17965;SDS011;9108;53.204;10.424;2024-02-15T12:55:34;12.30;;;4.97;;
17965;SDS011;9108;53.204;10.424;2024-02-15T12:58:02;9.55;;;4.50;;
17965;SDS011;9108;53.204;10.424;2024-02-15T13:00:33;10.45;;;4.40;;
17965;SDS011;9108;53.204;10.424;2024-02-15T13:03:02;8.75;;;4.00;;
17965;SDS011;9108;53.204;10.424;2024-02-15T13:05:30;8.30;;;4.30;;
17965;SDS011;9108;53.204;10.424;2024-02-15T13:07:57;8.40;;;3.83;;
17965;SDS011;9108;53.204;10.424;2024-02-15T13:10:27;7.10;;;3.50;;
17965;SDS011;9108;53.204;10.424;2024-02-15T13:12:56;8.50;;;3.73;;
17965;SDS011;9108;53.204;10.424;2024-02-15T13:15:23;7.28;;;3.58;;
17965;SDS011;9108;53.204;10.424;2024-02-15T13:17:57;8.48;;;3.53;;
17965;SDS011;9108;53.204;10.424;2024-02-15T13:20:25;7.60;;;3.53;;
17965;SDS011;9108;53.204;10.424;2024-02-15T13:22:57;6.55;;;3.40;;
17965;SDS011;9108;53.204;10.424;2024-02-15T13:25:27;8.70;;;3.22;;
17965;SDS011;9108;53.204;10.424;2024-02-15T13:27:56;6.55;;;3.03;;
17965;SDS011;9108;53.204;10.424;2024-02-15T13:30:23;7.68;;;3.00;;
17965;SDS011;9108;53.204;10.424;2024-02-15T13:32:52;7.75;;;3.30;;
17965;SDS011;9108;53.204;10.424;2024-02-15T13:35:20;6.28;;;3.00;;
17965;SDS011;9108;53.204;10.424;2024-02-15T13:37:49;5.57;;;2.90;;
17965;SDS011;9108;53.204;10.424;2024-02-15T13:40:17;6.75;;;3.20;;
17965;SDS011;9108;53.204;10.424;2024-02-15T13:42:48;5.75;;;2.95;;
17965;SDS011;9108;53.204;10.424;2024-02-15T13:45:19;4.95;;;3.10;;
17965;SDS011;9108;53.204;10.424;2024-02-15T13:47:48;7.57;;;3.30;;
17965;SDS011;9108;53.204;10.424;2024-02-15T13:50:15;8.63;;;3.35;;
17965;SDS011;9108;53.204;10.424;2024-02-15T13:52:42;6.90;;;3.70;;
17965;SDS011;9108;53.204;10.424;2024-02-15T13:55:10;6.95;;;3.50;;
17965;SDS011;9108;53.204;10.424;2024-02-15T13:57:38;8.25;;;3.58;;
17965;SDS011;9108;53.204;10.424;2024-02-15T14:00:05;6.38;;;3.75;;
17965;SDS011;9108;53.204;10.424;2024-02-15T14:02:39;8.73;;;3.65;;
17965;SDS011;9108;53.204;10.424;2024-02-15T14:05:06;9.40;;;3.88;;
17965;SDS011;9108;53.204;10.424;2024-02-15T14:07:34;6.40;;;3.88;;
17965;SDS011;9108;53.204;10.424;2024-02-15T14:10:01;8.25;;;3.95;;
17965;SDS011;9108;53.204;10.424;2024-02-15T14:12:28;9.05;;;4.60;;
17965;SDS011;9108;53.204;10.424;2024-02-15T14:14:55;8.63;;;4.30;;
17965;SDS011;9108;53.204;10.424;2024-02-15T14:17:23;10.25;;;4.68;;
17965;SDS011;9108;53.204;10.424;2024-02-15T14:19:51;7.88;;;4.50;;
17965;SDS011;9108;53.204;10.424;2024-02-15T14:22:18;11.57;;;4.85;;
17965;SDS011;9108;53.204;10.424;2024-02-15T14:24:48;10.73;;;5.07;;
17965;SDS011;9108;53.204;10.424;2024-02-15T14:27:15;10.40;;;5.10;;
17965;SDS011;9108;53.204;10.424;2024-02-15T14:29:43;8.35;;;4.80;;
17965;SDS011;9108;53.204;10.424;2024-02-15T14:32:30;8.95;;;5.35;;
17965;SDS011;9108;53.204;10.424;2024-02-15T14:35:16;9.77;;;5.38;;
17965;SDS011;9108;53.204;10.424;2024-02-15T14:37:45;10.63;;;5.50;;
17965;SDS011;9108;53.204;10.424;2024-02-15T14:40:12;12.50;;;5.60;;
17965;SDS011;9108;53.204;10.424;2024-02-15T14:42:40;11.60;;;5.47;;
17965;SDS011;9108;53.204;10.424;2024-02-15T14:45:08;10.23;;;5.80;;
17965;SDS011;9108;53.204;10.424;2024-02-15T14:47:35;10.13;;;5.40;;
17965;SDS011;9108;53.204;10.424;2024-02-15T14:50:03;9.77;;;5.65;;
17965;SDS011;9108;53.204;10.424;2024-02-15T14:52:34;8.65;;;5.18;;
17965;SDS011;9108;53.204;10.424;2024-02-15T14:55:02;12.90;;;5.38;;
17965;SDS011;9108;53.204;10.424;2024-02-15T14:57:30;12.48;;;5.85;;
17965;SDS011;9108;53.204;10.424;2024-02-15T14:59:58;11.27;;;5.60;;
17965;SDS011;9108;53.204;10.424;2024-02-15T15:02:25;11.70;;;5.60;;
17965;SDS011;9108;53.204;10.424;2024-02-15T15:04:52;12.37;;;5.67;;
17965;SDS011;9108;53.204;10.424;2024-02-15T15:07:41;14.35;;;5.97;;
17965;SDS011;9108;53.204;10.424;2024-02-15T15:10:26;11.77;;;5.90;;
17965;SDS011;9108;53.204;10.424;2024-02-15T15:13:11;12.70;;;5.72;;
17965;SDS011;9108;53.204;10.424;2024-02-15T15:15:38;12.95;;;6.03;;
17965;SDS011;9108;53.204;10.424;2024-02-15T15:18:05;14.40;;;6.50;;
17965;SDS011;9108;53.204;10.424;2024-02-15T15:20:34;9.55;;;5.70;;
17965;SDS011;9108;53.204;10.424;2024-02-15T15:23:03;11.25;;;5.45;;
17965;SDS011;9108;53.204;10.424;2024-02-15T15:25:31;10.98;;;5.28;;
17965;SDS011;9108;53.204;10.424;2024-02-15T15:27:58;11.93;;;5.55;;
17965;SDS011;9108;53.204;10.424;2024-02-15T15:30:26;9.60;;;5.43;;
17965;SDS011;9108;53.204;10.424;2024-02-15T15:32:53;11.17;;;5.60;;
17965;SDS011;9108;53.204;10.424;2024-02-15T15:35:20;12.85;;;5.90;;
17965;SDS011;9108;53.204;10.424;2024-02-15T15:37:48;11.25;;;5.47;;
17965;SDS011;9108;53.204;10.424;2024-02-15T15:40:17;13.32;;;5.75;;
17965;SDS011;9108;53.204;10.424;2024-02-15T15:42:44;11.48;;;4.93;;
17965;SDS011;9108;53.204;10.424;2024-02-15T15:45:12;10.67;;;5.00;;
17965;SDS011;9108;53.204;10.424;2024-02-15T15:47:40;8.82;;;4.75;;
17965;SDS011;9108;53.204;10.424;2024-02-15T15:50:07;12.85;;;4.80;;
17965;SDS011;9108;53.204;10.424;2024-02-15T15:52:36;9.75;;;4.63;;
17965;SDS011;9108;53.204;10.424;2024-02-15T15:55:05;11.35;;;4.93;;
17965;SDS011;9108;53.204;10.424;2024-02-15T15:57:38;10.73;;;4.65;;
17965;SDS011;9108;53.204;10.424;2024-02-15T16:00:06;10.27;;;4.80;;
17965;SDS011;9108;53.204;10.424;2024-02-15T16:02:37;9.57;;;4.70;;
17965;SDS011;9108;53.204;10.424;2024-02-15T16:05:04;10.73;;;4.63;;
17965;SDS011;9108;53.204;10.424;2024-02-15T16:07:31;7.78;;;4.13;;
17965;SDS011;9108;53.204;10.424;2024-02-15T16:09:59;11.50;;;4.50;;
17965;SDS011;9108;53.204;10.424;2024-02-15T16:12:26;11.82;;;4.50;;
17965;SDS011;9108;53.204;10.424;2024-02-15T16:14:54;9.05;;;4.30;;
17965;SDS011;9108;53.204;10.424;2024-02-15T16:17:21;10.65;;;4.70;;
17965;SDS011;9108;53.204;10.424;2024-02-15T16:19:48;9.30;;;4.95;;
17965;SDS011;9108;53.204;10.424;2024-02-15T16:22:16;12.75;;;5.50;;
17965;SDS011;9108;53.204;10.424;2024-02-15T16:24:43;11.55;;;5.35;;
17965;SDS011;9108;53.204;10.424;2024-02-15T16:27:12;9.65;;;4.75;;
17965;SDS011;9108;53.204;10.424;2024-02-15T16:29:39;9.75;;;4.43;;
17965;SDS011;9108;53.204;10.424;2024-02-15T16:32:07;10.25;;;4.18;;
17965;SDS011;9108;53.204;10.424;2024-02-15T16:34:34;6.25;;;3.35;;
17965;SDS011;9108;53.204;10.424;2024-02-15T16:37:02;10.13;;;3.83;;
17965;SDS011;9108;53.204;10.424;2024-02-15T16:39:29;8.38;;;3.70;;
17965;SDS011;9108;53.204;10.424;2024-02-15T16:41:56;9.15;;;3.70;;
17965;SDS011;9108;53.204;10.424;2024-02-15T16:44:23;10.10;;;4.00;;
17965;SDS011;9108;53.204;10.424;2024-02-15T16:46:50;9.45;;;3.80;;
17965;SDS011;9108;53.204;10.424;2024-02-15T16:49:20;10.02;;;3.90;;
17965;SDS011;9108;53.204;10.424;2024-02-15T16:51:47;7.35;;;3.72;;
17965;SDS011;9108;53.204;10.424;2024-02-15T16:54:14;11.00;;;3.60;;
17965;SDS011;9108;53.204;10.424;2024-02-15T16:56:41;9.23;;;3.80;;
17965;SDS011;9108;53.204;10.424;2024-02-15T16:59:08;8.38;;;3.50;;
17965;SDS011;9108;53.204;10.424;2024-02-15T17:01:36;9.37;;;3.87;;
17965;SDS011;9108;53.204;10.424;2024-02-15T17:04:04;10.00;;;3.80;;
17965;SDS011;9108;53.204;10.424;2024-02-15T17:06:34;9.68;;;3.40;;
17965;SDS011;9108;53.204;10.424;2024-02-15T17:09:01;10.13;;;3.58;;
17965;SDS011;9108;53.204;10.424;2024-02-15T17:11:29;8.07;;;3.58;;
17965;SDS011;9108;53.204;10.424;2024-02-15T17:13:56;10.68;;;3.67;;
17965;SDS011;9108;53.204;10.424;2024-02-15T17:16:26;12.05;;;4.43;;
17965;SDS011;9108;53.204;10.424;2024-02-15T17:18:53;10.40;;;4.50;;
17965;SDS011;9108;53.204;10.424;2024-02-15T17:21:20;8.70;;;4.00;;
17965;SDS011;9108;53.204;10.424;2024-02-15T17:23:49;8.63;;;3.97;;
17965;SDS011;9108;53.204;10.424;2024-02-15T17:26:16;7.53;;;3.72;;
17965;SDS011;9108;53.204;10.424;2024-02-15T17:28:44;8.18;;;3.50;;
17965;SDS011;9108;53.204;10.424;2024-02-15T17:31:13;9.40;;;3.65;;
17965;SDS011;9108;53.204;10.424;2024-02-15T17:33:40;9.65;;;3.53;;
17965;SDS011;9108;53.204;10.424;2024-02-15T17:36:08;12.02;;;4.00;;
17965;SDS011;9108;53.204;10.424;2024-02-15T17:38:36;9.20;;;3.72;;
17965;SDS011;9108;53.204;10.424;2024-02-15T17:41:05;7.03;;;3.50;;
17965;SDS011;9108;53.204;10.424;2024-02-15T17:43:32;7.82;;;3.63;;
17965;SDS011;9108;53.204;10.424;2024-02-15T17:45:59;10.55;;;4.55;;
17965;SDS011;9108;53.204;10.424;2024-02-15T17:48:28;8.63;;;4.55;;
17965;SDS011;9108;53.204;10.424;2024-02-15T17:50:55;14.05;;;5.95;;
17965;SDS011;9108;53.204;10.424;2024-02-15T17:53:23;12.38;;;5.10;;
17965;SDS011;9108;53.204;10.424;2024-02-15T17:55:51;12.23;;;5.05;;
17965;SDS011;9108;53.204;10.424;2024-02-15T17:58:22;11.32;;;4.53;;
17965;SDS011;9108;53.204;10.424;2024-02-15T18:00:50;10.27;;;4.80;;
17965;SDS011;9108;53.204;10.424;2024-02-15T18:03:17;8.80;;;4.70;;
17965;SDS011;9108;53.204;10.424;2024-02-15T18:05:45;11.25;;;5.05;;
17965;SDS011;9108;53.204;10.424;2024-02-15T18:08:12;12.55;;;5.57;;
17965;SDS011;9108;53.204;10.424;2024-02-15T18:10:39;11.35;;;5.13;;
17965;SDS011;9108;53.204;10.424;2024-02-15T18:13:07;11.48;;;5.50;;
17965;SDS011;9108;53.204;10.424;2024-02-15T18:15:35;12.98;;;6.10;;
17965;SDS011;9108;53.204;10.424;2024-02-15T18:18:09;12.70;;;5.65;;
17965;SDS011;9108;53.204;10.424;2024-02-15T18:20:36;16.33;;;5.60;;
17965;SDS011;9108;53.204;10.424;2024-02-15T18:23:04;12.50;;;5.38;;
17965;SDS011;9108;53.204;10.424;2024-02-15T18:25:33;15.10;;;7.70;;
17965;SDS011;9108;53.204;10.424;2024-02-15T18:28:12;13.27;;;6.22;;
17965;SDS011;9108;53.204;10.424;2024-02-15T18:33:56;11.65;;;6.30;;
17965;SDS011;9108;53.204;10.424;2024-02-15T18:36:23;13.13;;;6.90;;
17965;SDS011;9108;53.204;10.424;2024-02-15T18:38:50;11.57;;;6.20;;
17965;SDS011;9108;53.204;10.424;2024-02-15T18:41:17;12.75;;;6.68;;
17965;SDS011;9108;53.204;10.424;2024-02-15T18:43:45;11.82;;;6.18;;
17965;SDS011;9108;53.204;10.424;2024-02-15T18:46:15;15.55;;;7.40;;
17965;SDS011;9108;53.204;10.424;2024-02-15T18:48:42;18.37;;;7.10;;
17965;SDS011;9108;53.204;10.424;2024-02-15T18:51:14;14.05;;;7.10;;
17965;SDS011;9108;53.204;10.424;2024-02-15T18:53:42;16.15;;;7.00;;
17965;SDS011;9108;53.204;10.424;2024-02-15T18:56:12;15.35;;;7.10;;
17965;SDS011;9108;53.204;10.424;2024-02-15T18:58:41;16.20;;;7.80;;
17965;SDS011;9108;53.204;10.424;2024-02-15T19:01:09;15.45;;;7.68;;
17965;SDS011;9108;53.204;10.424;2024-02-15T19:03:36;16.73;;;7.68;;
17965;SDS011;9108;53.204;10.424;2024-02-15T19:06:05;14.20;;;7.43;;
17965;SDS011;9108;53.204;10.424;2024-02-15T19:08:35;14.63;;;7.68;;
17965;SDS011;9108;53.204;10.424;2024-02-15T19:11:02;12.53;;;7.50;;
17965;SDS011;9108;53.204;10.424;2024-02-15T19:13:30;13.75;;;7.20;;
17965;SDS011;9108;53.204;10.424;2024-02-15T19:15:57;15.90;;;7.85;;
17965;SDS011;9108;53.204;10.424;2024-02-15T19:18:24;16.65;;;8.20;;
17965;SDS011;9108;53.204;10.424;2024-02-15T19:20:53;17.77;;;7.90;;
17965;SDS011;9108;53.204;10.424;2024-02-15T19:23:20;13.80;;;7.25;;
17965;SDS011;9108;53.204;10.424;2024-02-15T19:25:48;15.23;;;7.10;;
17965;SDS011;9108;53.204;10.424;2024-02-15T19:28:15;14.60;;;7.10;;
17965;SDS011;9108;53.204;10.424;2024-02-15T19:30:43;14.50;;;7.05;;
17965;SDS011;9108;53.204;10.424;2024-02-15T19:33:11;15.05;;;6.90;;
17965;SDS011;9108;53.204;10.424;2024-02-15T19:35:39;17.40;;;7.30;;
17965;SDS011;9108;53.204;10.424;2024-02-15T19:38:07;13.70;;;6.70;;
17965;SDS011;9108;53.204;10.424;2024-02-15T19:40:34;15.13;;;6.80;;
17965;SDS011;9108;53.204;10.424;2024-02-15T19:43:08;15.00;;;7.30;;
17965;SDS011;9108;53.204;10.424;2024-02-15T19:45:36;13.93;;;6.70;;
17965;SDS011;9108;53.204;10.424;2024-02-15T19:48:07;13.13;;;7.28;;
17965;SDS011;9108;53.204;10.424;2024-02-15T19:50:36;15.15;;;7.35;;